Monamie — WDA5193 — position and weather

sailwx.info

Track history (hours):
 
Tides and Currents Weather Stations Pressure Air Temp Water Temp Dewpoint Dewpoint Depression Visibility Wind Speed Wind Dir Waves Ship Positions

Monamie

Owner: REED, DAVID E, Kingston, MA. More information available from US FCC via Universal Licensing System and Coast Guard Vessel Documentation Center.

Last reported at 2017-Nov-28 21:47 UTC. Time now 2017-Dec-13 20:52 UTC.
Position N 34°10' W 119°14'.
Warning: this ship's position is 14 days out of date.

Length 12 m.

Type: Sailing vessel. MMSI: 366817510.

Date/timePositionNaut miles runAvg speedWind from/ knotsBaromVisibWave heightAir tempDewpointWater temp
2017-Nov-28 21:47N 34°10' W 119°14'0 0.0
2017-Nov-28 01:24N 34°10' W 119°14'0 0.0
2017-Nov-26 23:30N 34°10' W 119°14'0 0.0
2017-Nov-26 22:54N 34°10' W 119°14'0 0.1
2017-Nov-26 22:20N 34°10' W 119°14'1 3.1
2017-Nov-26 22:00N 34°10' W 119°15'4 5.4
2017-Nov-26 21:13N 34°06' W 119°17'2 6.3
2017-Nov-26 20:58N 34°04' W 119°17'2 4.3
2017-Nov-26 20:30N 34°06' W 119°15'3 6.5
2017-Nov-26 20:00N 34°09' W 119°14'1 0.1
2017-Nov-26 09:34N 34°10' W 119°14'0 0.0
2017-Nov-26 09:22N 34°10' W 119°14'0 0.0
2017-Nov-26 08:52N 34°10' W 119°14'0 0.0
2017-Nov-25 12:58N 34°10' W 119°14'  
Track history (hours):
 
Tides and Currents Weather Stations Pressure Air Temp Water Temp Dewpoint Dewpoint Depression Visibility Wind Speed Wind Dir Waves Ship Positions

Monamie

Owner: REED, DAVID E, Kingston, MA. More information available from US FCC via Universal Licensing System and Coast Guard Vessel Documentation Center.

Last reported at 2017-Nov-28 21:47 UTC. Time now 2017-Dec-13 20:52 UTC.
Position N 34°10' W 119°14'.
Warning: this ship's position is 14 days out of date.

Length 12 m.

Type: Sailing vessel. MMSI: 366817510.

Date/timePositionNaut miles runAvg speedWind from/ knotsBaromVisibWave heightAir tempDewpointWater temp
2017-Nov-28 21:47N 34°10' W 119°14'0 0.0
2017-Nov-28 01:24N 34°10' W 119°14'0 0.0
2017-Nov-26 23:30N 34°10' W 119°14'0 0.0
2017-Nov-26 22:54N 34°10' W 119°14'0 0.1
2017-Nov-26 22:20N 34°10' W 119°14'1 3.1
2017-Nov-26 22:00N 34°10' W 119°15'4 5.4
2017-Nov-26 21:13N 34°06' W 119°17'2 6.3
2017-Nov-26 20:58N 34°04' W 119°17'2 4.3
2017-Nov-26 20:30N 34°06' W 119°15'3 6.5
2017-Nov-26 20:00N 34°09' W 119°14'1 0.1
2017-Nov-26 09:34N 34°10' W 119°14'0 0.0
2017-Nov-26 09:22N 34°10' W 119°14'0 0.0
2017-Nov-26 08:52N 34°10' W 119°14'0 0.0
2017-Nov-25 12:58N 34°10' W 119°14'  

Dump ship's entire track history